sensor_id;sensor_type;location;lat;lon;timestamp;P1;durP1;ratioP1;P2;durP2;ratioP2
12433;SDS011;6281;49.038;8.372;2022-08-05T00:01:30;6.43;;;3.10;;
12433;SDS011;6281;49.038;8.372;2022-08-05T00:03:59;5.15;;;2.70;;
12433;SDS011;6281;49.038;8.372;2022-08-05T00:06:25;4.15;;;3.33;;
12433;SDS011;6281;49.038;8.372;2022-08-05T00:08:52;5.53;;;2.83;;
12433;SDS011;6281;49.038;8.372;2022-08-05T00:11:19;3.83;;;2.88;;
12433;SDS011;6281;49.038;8.372;2022-08-05T00:13:46;13.32;;;3.72;;
12433;SDS011;6281;49.038;8.372;2022-08-05T00:16:13;10.73;;;3.28;;
12433;SDS011;6281;49.038;8.372;2022-08-05T00:18:42;5.20;;;2.85;;
12433;SDS011;6281;49.038;8.372;2022-08-05T00:21:13;3.28;;;2.97;;
12433;SDS011;6281;49.038;8.372;2022-08-05T00:23:41;10.00;;;3.22;;
12433;SDS011;6281;49.038;8.372;2022-08-05T00:26:09;4.53;;;2.63;;
12433;SDS011;6281;49.038;8.372;2022-08-05T00:28:37;3.95;;;2.70;;
12433;SDS011;6281;49.038;8.372;2022-08-05T00:31:04;2.92;;;2.60;;
12433;SDS011;6281;49.038;8.372;2022-08-05T00:33:32;5.00;;;2.92;;
12433;SDS011;6281;49.038;8.372;2022-08-05T00:36:00;4.50;;;3.15;;
12433;SDS011;6281;49.038;8.372;2022-08-05T00:38:29;9.80;;;2.97;;
12433;SDS011;6281;49.038;8.372;2022-08-05T00:40:57;5.18;;;2.67;;
12433;SDS011;6281;49.038;8.372;2022-08-05T00:43:24;4.43;;;2.55;;
12433;SDS011;6281;49.038;8.372;2022-08-05T00:45:51;9.35;;;3.28;;
12433;SDS011;6281;49.038;8.372;2022-08-05T00:48:18;7.75;;;3.63;;
12433;SDS011;6281;49.038;8.372;2022-08-05T00:50:47;10.30;;;3.08;;
12433;SDS011;6281;49.038;8.372;2022-08-05T00:53:16;7.68;;;2.58;;
12433;SDS011;6281;49.038;8.372;2022-08-05T00:55:46;11.95;;;2.55;;
12433;SDS011;6281;49.038;8.372;2022-08-05T00:58:13;8.02;;;2.88;;
12433;SDS011;6281;49.038;8.372;2022-08-05T01:00:42;8.75;;;3.35;;
12433;SDS011;6281;49.038;8.372;2022-08-05T01:03:09;10.85;;;3.22;;
12433;SDS011;6281;49.038;8.372;2022-08-05T01:05:37;8.70;;;2.85;;
12433;SDS011;6281;49.038;8.372;2022-08-05T01:08:04;10.65;;;3.00;;
12433;SDS011;6281;49.038;8.372;2022-08-05T01:10:34;7.85;;;2.70;;
12433;SDS011;6281;49.038;8.372;2022-08-05T01:13:09;5.82;;;2.60;;
12433;SDS011;6281;49.038;8.372;2022-08-05T01:15:42;4.45;;;2.58;;
12433;SDS011;6281;49.038;8.372;2022-08-05T01:18:18;5.88;;;2.42;;
12433;SDS011;6281;49.038;8.372;2022-08-05T01:20:54;3.28;;;2.70;;
12433;SDS011;6281;49.038;8.372;2022-08-05T01:23:39;6.50;;;2.72;;
12433;SDS011;6281;49.038;8.372;2022-08-05T01:26:32;7.40;;;3.05;;
12433;SDS011;6281;49.038;8.372;2022-08-05T01:29:08;5.95;;;2.78;;
12433;SDS011;6281;49.038;8.372;2022-08-05T01:31:47;4.47;;;2.47;;
12433;SDS011;6281;49.038;8.372;2022-08-05T01:34:19;8.50;;;3.15;;
12433;SDS011;6281;49.038;8.372;2022-08-05T01:36:49;8.80;;;3.33;;
12433;SDS011;6281;49.038;8.372;2022-08-05T01:39:19;5.13;;;3.13;;
12433;SDS011;6281;49.038;8.372;2022-08-05T01:41:48;8.98;;;3.22;;
12433;SDS011;6281;49.038;8.372;2022-08-05T01:44:18;8.98;;;3.40;;
12433;SDS011;6281;49.038;8.372;2022-08-05T01:46:46;5.78;;;3.30;;
12433;SDS011;6281;49.038;8.372;2022-08-05T01:49:15;5.70;;;3.50;;
12433;SDS011;6281;49.038;8.372;2022-08-05T01:51:46;6.50;;;3.25;;
12433;SDS011;6281;49.038;8.372;2022-08-05T01:54:14;8.05;;;3.58;;
12433;SDS011;6281;49.038;8.372;2022-08-05T01:56:42;8.35;;;3.67;;
12433;SDS011;6281;49.038;8.372;2022-08-05T01:59:11;11.48;;;4.18;;
12433;SDS011;6281;49.038;8.372;2022-08-05T02:01:43;7.25;;;3.25;;
12433;SDS011;6281;49.038;8.372;2022-08-05T02:04:13;6.07;;;3.33;;
12433;SDS011;6281;49.038;8.372;2022-08-05T02:06:43;8.07;;;3.70;;
12433;SDS011;6281;49.038;8.372;2022-08-05T02:09:10;9.13;;;3.70;;
12433;SDS011;6281;49.038;8.372;2022-08-05T02:11:39;6.60;;;4.28;;
12433;SDS011;6281;49.038;8.372;2022-08-05T02:14:11;8.85;;;3.53;;
12433;SDS011;6281;49.038;8.372;2022-08-05T02:16:42;6.32;;;3.67;;
12433;SDS011;6281;49.038;8.372;2022-08-05T02:19:16;6.97;;;3.55;;
12433;SDS011;6281;49.038;8.372;2022-08-05T02:21:53;10.68;;;4.30;;
12433;SDS011;6281;49.038;8.372;2022-08-05T02:24:27;9.27;;;4.00;;
12433;SDS011;6281;49.038;8.372;2022-08-05T02:27:00;7.05;;;3.72;;
12433;SDS011;6281;49.038;8.372;2022-08-05T02:29:30;7.30;;;3.65;;
12433;SDS011;6281;49.038;8.372;2022-08-05T02:32:01;8.32;;;4.13;;
12433;SDS011;6281;49.038;8.372;2022-08-05T02:34:30;9.13;;;3.83;;
12433;SDS011;6281;49.038;8.372;2022-08-05T02:37:02;8.57;;;4.22;;
12433;SDS011;6281;49.038;8.372;2022-08-05T02:39:33;8.35;;;4.35;;
12433;SDS011;6281;49.038;8.372;2022-08-05T02:42:03;7.20;;;3.95;;
12433;SDS011;6281;49.038;8.372;2022-08-05T02:44:32;5.68;;;4.05;;
12433;SDS011;6281;49.038;8.372;2022-08-05T02:47:04;9.25;;;3.90;;
12433;SDS011;6281;49.038;8.372;2022-08-05T02:49:35;5.57;;;4.30;;
12433;SDS011;6281;49.038;8.372;2022-08-05T02:52:06;12.85;;;4.15;;
12433;SDS011;6281;49.038;8.372;2022-08-05T02:54:35;7.00;;;3.97;;
12433;SDS011;6281;49.038;8.372;2022-08-05T02:57:04;7.22;;;3.70;;
12433;SDS011;6281;49.038;8.372;2022-08-05T02:59:34;6.18;;;4.05;;
12433;SDS011;6281;49.038;8.372;2022-08-05T03:02:01;7.50;;;3.95;;
12433;SDS011;6281;49.038;8.372;2022-08-05T03:04:30;13.70;;;4.32;;
12433;SDS011;6281;49.038;8.372;2022-08-05T03:06:58;5.28;;;3.70;;
12433;SDS011;6281;49.038;8.372;2022-08-05T03:09:25;5.15;;;3.88;;
12433;SDS011;6281;49.038;8.372;2022-08-05T03:11:52;8.07;;;3.88;;
12433;SDS011;6281;49.038;8.372;2022-08-05T03:14:19;5.00;;;3.78;;
12433;SDS011;6281;49.038;8.372;2022-08-05T03:16:46;8.07;;;4.30;;
12433;SDS011;6281;49.038;8.372;2022-08-05T03:19:13;8.52;;;3.70;;
12433;SDS011;6281;49.038;8.372;2022-08-05T03:21:42;8.20;;;4.35;;
12433;SDS011;6281;49.038;8.372;2022-08-05T03:24:09;6.30;;;3.55;;
12433;SDS011;6281;49.038;8.372;2022-08-05T03:26:36;7.80;;;4.57;;
12433;SDS011;6281;49.038;8.372;2022-08-05T03:29:03;5.88;;;4.15;;
12433;SDS011;6281;49.038;8.372;2022-08-05T03:31:30;10.10;;;3.85;;
12433;SDS011;6281;49.038;8.372;2022-08-05T03:33:57;5.57;;;3.65;;
12433;SDS011;6281;49.038;8.372;2022-08-05T03:36:24;4.95;;;4.18;;
12433;SDS011;6281;49.038;8.372;2022-08-05T03:41:22;5.30;;;3.93;;
12433;SDS011;6281;49.038;8.372;2022-08-05T03:43:49;4.50;;;4.00;;
12433;SDS011;6281;49.038;8.372;2022-08-05T03:46:16;10.60;;;5.10;;
12433;SDS011;6281;49.038;8.372;2022-08-05T03:48:43;12.27;;;5.25;;
12433;SDS011;6281;49.038;8.372;2022-08-05T03:51:11;6.50;;;4.82;;
12433;SDS011;6281;49.038;8.372;2022-08-05T03:53:40;5.38;;;4.47;;
12433;SDS011;6281;49.038;8.372;2022-08-05T03:56:16;10.57;;;5.00;;
12433;SDS011;6281;49.038;8.372;2022-08-05T03:58:49;7.22;;;4.88;;
12433;SDS011;6281;49.038;8.372;2022-08-05T04:01:20;9.23;;;4.93;;
12433;SDS011;6281;49.038;8.372;2022-08-05T04:03:50;8.60;;;4.93;;
12433;SDS011;6281;49.038;8.372;2022-08-05T04:06:17;8.80;;;4.50;;
12433;SDS011;6281;49.038;8.372;2022-08-05T04:08:45;7.63;;;5.30;;
12433;SDS011;6281;49.038;8.372;2022-08-05T04:11:12;9.00;;;5.40;;
12433;SDS011;6281;49.038;8.372;2022-08-05T04:13:42;7.10;;;5.23;;
12433;SDS011;6281;49.038;8.372;2022-08-05T04:16:11;11.83;;;6.20;;
12433;SDS011;6281;49.038;8.372;2022-08-05T04:18:38;12.87;;;6.13;;
12433;SDS011;6281;49.038;8.372;2022-08-05T04:21:05;10.13;;;5.63;;
12433;SDS011;6281;49.038;8.372;2022-08-05T04:23:33;9.30;;;5.17;;
12433;SDS011;6281;49.038;8.372;2022-08-05T04:26:00;7.43;;;5.47;;
12433;SDS011;6281;49.038;8.372;2022-08-05T04:28:27;5.70;;;4.97;;
12433;SDS011;6281;49.038;8.372;2022-08-05T04:30:56;8.13;;;5.50;;
12433;SDS011;6281;49.038;8.372;2022-08-05T04:33:23;8.60;;;4.30;;
12433;SDS011;6281;49.038;8.372;2022-08-05T04:35:49;9.70;;;4.50;;
12433;SDS011;6281;49.038;8.372;2022-08-05T04:38:16;4.03;;;3.57;;
12433;SDS011;6281;49.038;8.372;2022-08-05T04:40:43;4.83;;;2.97;;
12433;SDS011;6281;49.038;8.372;2022-08-05T04:43:10;4.27;;;2.60;;
12433;SDS011;6281;49.038;8.372;2022-08-05T04:45:37;5.90;;;3.13;;
12433;SDS011;6281;49.038;8.372;2022-08-05T04:48:06;6.63;;;2.90;;
12433;SDS011;6281;49.038;8.372;2022-08-05T04:50:37;5.53;;;2.73;;
12433;SDS011;6281;49.038;8.372;2022-08-05T04:53:05;4.47;;;2.97;;
12433;SDS011;6281;49.038;8.372;2022-08-05T04:55:32;3.37;;;2.97;;
12433;SDS011;6281;49.038;8.372;2022-08-05T04:57:58;3.50;;;2.77;;
12433;SDS011;6281;49.038;8.372;2022-08-05T05:00:25;3.17;;;2.53;;
12433;SDS011;6281;49.038;8.372;2022-08-05T05:02:52;4.40;;;2.67;;
12433;SDS011;6281;49.038;8.372;2022-08-05T05:05:20;3.50;;;2.43;;
12433;SDS011;6281;49.038;8.372;2022-08-05T05:07:47;2.50;;;2.30;;
12433;SDS011;6281;49.038;8.372;2022-08-05T05:10:14;6.60;;;3.07;;
12433;SDS011;6281;49.038;8.372;2022-08-05T05:12:41;5.63;;;3.17;;
12433;SDS011;6281;49.038;8.372;2022-08-05T05:15:08;3.77;;;2.67;;
12433;SDS011;6281;49.038;8.372;2022-08-05T05:17:36;3.97;;;2.77;;
12433;SDS011;6281;49.038;8.372;2022-08-05T05:20:04;4.17;;;2.77;;
12433;SDS011;6281;49.038;8.372;2022-08-05T05:22:33;4.23;;;2.20;;
12433;SDS011;6281;49.038;8.372;2022-08-05T05:25:00;2.60;;;2.20;;
12433;SDS011;6281;49.038;8.372;2022-08-05T05:27:26;2.20;;;2.00;;
12433;SDS011;6281;49.038;8.372;2022-08-05T05:29:54;2.60;;;2.10;;
12433;SDS011;6281;49.038;8.372;2022-08-05T05:32:21;3.30;;;2.27;;
12433;SDS011;6281;49.038;8.372;2022-08-05T05:34:48;2.20;;;2.00;;
12433;SDS011;6281;49.038;8.372;2022-08-05T05:37:15;4.17;;;2.40;;
12433;SDS011;6281;49.038;8.372;2022-08-05T05:39:43;2.77;;;2.07;;
12433;SDS011;6281;49.038;8.372;2022-08-05T05:42:10;2.57;;;2.10;;
12433;SDS011;6281;49.038;8.372;2022-08-05T05:44:37;3.90;;;2.30;;
12433;SDS011;6281;49.038;8.372;2022-08-05T05:47:04;4.73;;;2.20;;
12433;SDS011;6281;49.038;8.372;2022-08-05T05:49:31;6.20;;;2.10;;
12433;SDS011;6281;49.038;8.372;2022-08-05T05:51:58;3.20;;;2.50;;
12433;SDS011;6281;49.038;8.372;2022-08-05T05:54:24;3.90;;;2.27;;
12433;SDS011;6281;49.038;8.372;2022-08-05T05:56:53;3.97;;;2.40;;
12433;SDS011;6281;49.038;8.372;2022-08-05T05:59:19;6.50;;;2.63;;
12433;SDS011;6281;49.038;8.372;2022-08-05T06:01:46;4.07;;;2.27;;
12433;SDS011;6281;49.038;8.372;2022-08-05T06:04:13;7.67;;;2.60;;
12433;SDS011;6281;49.038;8.372;2022-08-05T06:06:41;5.60;;;2.70;;
12433;SDS011;6281;49.038;8.372;2022-08-05T06:09:09;6.83;;;2.47;;
12433;SDS011;6281;49.038;8.372;2022-08-05T06:11:37;3.10;;;2.67;;
12433;SDS011;6281;49.038;8.372;2022-08-05T06:14:05;4.47;;;2.40;;
12433;SDS011;6281;49.038;8.372;2022-08-05T06:16:32;6.07;;;2.50;;
12433;SDS011;6281;49.038;8.372;2022-08-05T06:18:59;4.32;;;2.70;;
12433;SDS011;6281;49.038;8.372;2022-08-05T06:21:26;4.83;;;2.37;;
12433;SDS011;6281;49.038;8.372;2022-08-05T06:23:56;5.20;;;2.43;;
12433;SDS011;6281;49.038;8.372;2022-08-05T06:26:23;4.47;;;2.83;;
12433;SDS011;6281;49.038;8.372;2022-08-05T06:28:50;4.97;;;2.40;;
12433;SDS011;6281;49.038;8.372;2022-08-05T06:31:18;3.50;;;2.03;;
12433;SDS011;6281;49.038;8.372;2022-08-05T06:33:45;2.73;;;2.27;;
12433;SDS011;6281;49.038;8.372;2022-08-05T06:36:12;3.07;;;2.10;;
12433;SDS011;6281;49.038;8.372;2022-08-05T06:38:39;3.77;;;2.23;;
12433;SDS011;6281;49.038;8.372;2022-08-05T06:41:06;4.23;;;2.83;;
12433;SDS011;6281;49.038;8.372;2022-08-05T06:43:34;3.00;;;2.33;;
12433;SDS011;6281;49.038;8.372;2022-08-05T06:46:01;4.37;;;2.60;;
12433;SDS011;6281;49.038;8.372;2022-08-05T06:48:29;3.33;;;2.40;;
12433;SDS011;6281;49.038;8.372;2022-08-05T06:50:58;5.17;;;2.27;;
12433;SDS011;6281;49.038;8.372;2022-08-05T06:53:26;2.63;;;2.37;;
12433;SDS011;6281;49.038;8.372;2022-08-05T06:55:53;2.30;;;2.10;;
12433;SDS011;6281;49.038;8.372;2022-08-05T06:58:20;4.53;;;2.10;;
12433;SDS011;6281;49.038;8.372;2022-08-05T07:00:47;2.40;;;2.20;;
12433;SDS011;6281;49.038;8.372;2022-08-05T07:03:14;3.73;;;2.40;;
12433;SDS011;6281;49.038;8.372;2022-08-05T07:05:42;2.80;;;1.93;;
12433;SDS011;6281;49.038;8.372;2022-08-05T07:08:10;2.37;;;2.17;;
12433;SDS011;6281;49.038;8.372;2022-08-05T07:10:37;2.50;;;2.30;;
12433;SDS011;6281;49.038;8.372;2022-08-05T07:13:05;3.80;;;2.40;;
12433;SDS011;6281;49.038;8.372;2022-08-05T07:15:49;1.90;;;1.80;;
12433;SDS011;6281;49.038;8.372;2022-08-05T07:18:38;1.97;;;1.80;;
12433;SDS011;6281;49.038;8.372;2022-08-05T07:21:07;4.10;;;2.10;;
12433;SDS011;6281;49.038;8.372;2022-08-05T07:23:34;3.87;;;2.10;;
12433;SDS011;6281;49.038;8.372;2022-08-05T07:26:02;3.30;;;2.10;;
12433;SDS011;6281;49.038;8.372;2022-08-05T07:28:29;3.13;;;2.17;;
12433;SDS011;6281;49.038;8.372;2022-08-05T07:30:56;2.45;;;1.95;;
12433;SDS011;6281;49.038;8.372;2022-08-05T07:33:23;2.58;;;1.90;;
12433;SDS011;6281;49.038;8.372;2022-08-05T07:35:50;2.85;;;2.13;;
12433;SDS011;6281;49.038;8.372;2022-08-05T07:38:19;3.22;;;2.30;;
12433;SDS011;6281;49.038;8.372;2022-08-05T07:40:46;2.40;;;1.98;;
12433;SDS011;6281;49.038;8.372;2022-08-05T07:43:13;2.60;;;2.15;;
12433;SDS011;6281;49.038;8.372;2022-08-05T07:45:40;2.17;;;1.98;;
12433;SDS011;6281;49.038;8.372;2022-08-05T07:48:08;2.17;;;1.98;;
12433;SDS011;6281;49.038;8.372;2022-08-05T07:50:35;2.40;;;2.20;;
12433;SDS011;6281;49.038;8.372;2022-08-05T07:53:02;2.30;;;2.00;;
12433;SDS011;6281;49.038;8.372;2022-08-05T07:55:30;2.47;;;2.28;;
12433;SDS011;6281;49.038;8.372;2022-08-05T07:57:57;4.03;;;2.08;;
12433;SDS011;6281;49.038;8.372;2022-08-05T08:00:24;3.15;;;2.22;;
12433;SDS011;6281;49.038;8.372;2022-08-05T08:02:51;2.45;;;2.25;;
12433;SDS011;6281;49.038;8.372;2022-08-05T08:05:18;3.10;;;2.00;;
12433;SDS011;6281;49.038;8.372;2022-08-05T08:07:45;3.90;;;2.40;;
12433;SDS011;6281;49.038;8.372;2022-08-05T08:10:13;3.00;;;2.55;;
12433;SDS011;6281;49.038;8.372;2022-08-05T08:12:41;2.67;;;2.40;;
12433;SDS011;6281;49.038;8.372;2022-08-05T08:15:09;4.07;;;2.30;;
12433;SDS011;6281;49.038;8.372;2022-08-05T08:17:36;4.70;;;2.30;;
12433;SDS011;6281;49.038;8.372;2022-08-05T08:20:04;3.50;;;2.42;;
12433;SDS011;6281;49.038;8.372;2022-08-05T08:22:31;5.18;;;2.20;;
12433;SDS011;6281;49.038;8.372;2022-08-05T08:24:58;2.53;;;2.10;;
12433;SDS011;6281;49.038;8.372;2022-08-05T08:27:26;3.38;;;2.30;;
12433;SDS011;6281;49.038;8.372;2022-08-05T08:29:54;2.47;;;2.05;;
12433;SDS011;6281;49.038;8.372;2022-08-05T08:32:21;4.63;;;2.72;;
12433;SDS011;6281;49.038;8.372;2022-08-05T08:34:48;3.53;;;2.35;;
12433;SDS011;6281;49.038;8.372;2022-08-05T08:37:16;2.50;;;2.00;;
12433;SDS011;6281;49.038;8.372;2022-08-05T08:39:43;2.47;;;2.20;;
12433;SDS011;6281;49.038;8.372;2022-08-05T08:42:10;2.30;;;2.10;;
12433;SDS011;6281;49.038;8.372;2022-08-05T08:44:38;2.17;;;1.75;;
12433;SDS011;6281;49.038;8.372;2022-08-05T08:47:07;2.15;;;1.65;;
12433;SDS011;6281;49.038;8.372;2022-08-05T08:49:34;7.05;;;2.22;;
12433;SDS011;6281;49.038;8.372;2022-08-05T08:52:05;5.40;;;2.25;;
12433;SDS011;6281;49.038;8.372;2022-08-05T08:54:37;1.83;;;1.70;;
12433;SDS011;6281;49.038;8.372;2022-08-05T08:57:05;4.15;;;1.80;;
12433;SDS011;6281;49.038;8.372;2022-08-05T08:59:33;2.20;;;2.00;;
12433;SDS011;6281;49.038;8.372;2022-08-05T09:02:03;2.45;;;2.00;;
12433;SDS011;6281;49.038;8.372;2022-08-05T09:04:34;2.50;;;2.20;;
12433;SDS011;6281;49.038;8.372;2022-08-05T09:07:03;1.80;;;1.70;;
12433;SDS011;6281;49.038;8.372;2022-08-05T09:09:31;3.28;;;1.90;;
12433;SDS011;6281;49.038;8.372;2022-08-05T09:11:59;2.03;;;1.83;;
12433;SDS011;6281;49.038;8.372;2022-08-05T09:14:26;3.95;;;2.40;;
12433;SDS011;6281;49.038;8.372;2022-08-05T09:16:53;3.38;;;1.98;;
12433;SDS011;6281;49.038;8.372;2022-08-05T09:19:20;2.17;;;1.60;;
12433;SDS011;6281;49.038;8.372;2022-08-05T09:21:48;1.90;;;1.75;;
12433;SDS011;6281;49.038;8.372;2022-08-05T09:24:15;3.60;;;1.92;;
12433;SDS011;6281;49.038;8.372;2022-08-05T09:26:45;3.38;;;2.38;;
12433;SDS011;6281;49.038;8.372;2022-08-05T09:29:15;2.65;;;2.00;;
12433;SDS011;6281;49.038;8.372;2022-08-05T09:31:42;2.92;;;2.10;;
12433;SDS011;6281;49.038;8.372;2022-08-05T09:34:10;4.25;;;2.08;;
12433;SDS011;6281;49.038;8.372;2022-08-05T09:36:41;2.17;;;1.98;;
12433;SDS011;6281;49.038;8.372;2022-08-05T09:39:11;2.47;;;2.05;;
12433;SDS011;6281;49.038;8.372;2022-08-05T09:41:55;1.95;;;1.70;;
12433;SDS011;6281;49.038;8.372;2022-08-05T09:44:32;2.40;;;2.20;;
12433;SDS011;6281;49.038;8.372;2022-08-05T09:47:07;3.78;;;2.08;;
12433;SDS011;6281;49.038;8.372;2022-08-05T09:49:43;2.47;;;1.90;;
12433;SDS011;6281;49.038;8.372;2022-08-05T09:52:18;2.28;;;1.88;;
12433;SDS011;6281;49.038;8.372;2022-08-05T09:54:58;2.47;;;2.05;;
12433;SDS011;6281;49.038;8.372;2022-08-05T09:57:30;3.60;;;2.10;;
12433;SDS011;6281;49.038;8.372;2022-08-05T10:00:00;4.60;;;1.98;;
12433;SDS011;6281;49.038;8.372;2022-08-05T10:02:30;3.28;;;2.30;;
12433;SDS011;6281;49.038;8.372;2022-08-05T10:05:04;1.63;;;1.52;;
12433;SDS011;6281;49.038;8.372;2022-08-05T10:07:50;1.98;;;1.77;;
12433;SDS011;6281;49.038;8.372;2022-08-05T10:10:20;2.88;;;1.80;;
12433;SDS011;6281;49.038;8.372;2022-08-05T10:12:49;4.13;;;2.05;;
12433;SDS011;6281;49.038;8.372;2022-08-05T10:15:19;2.20;;;2.00;;
12433;SDS011;6281;49.038;8.372;2022-08-05T10:20:44;1.88;;;1.73;;
12433;SDS011;6281;49.038;8.372;2022-08-05T10:23:13;2.22;;;2.03;;
12433;SDS011;6281;49.038;8.372;2022-08-05T10:25:43;2.25;;;2.05;;
12433;SDS011;6281;49.038;8.372;2022-08-05T10:28:10;2.40;;;1.75;;
12433;SDS011;6281;49.038;8.372;2022-08-05T10:30:38;2.25;;;2.00;;
12433;SDS011;6281;49.038;8.372;2022-08-05T10:33:05;4.85;;;2.30;;
12433;SDS011;6281;49.038;8.372;2022-08-05T10:35:32;6.95;;;2.00;;
12433;SDS011;6281;49.038;8.372;2022-08-05T10:38:00;1.92;;;1.80;;
12433;SDS011;6281;49.038;8.372;2022-08-05T10:40:30;2.05;;;1.92;;
12433;SDS011;6281;49.038;8.372;2022-08-05T10:43:12;4.38;;;2.17;;
12433;SDS011;6281;49.038;8.372;2022-08-05T10:45:55;4.28;;;2.40;;
12433;SDS011;6281;49.038;8.372;2022-08-05T10:48:29;2.20;;;2.00;;
12433;SDS011;6281;49.038;8.372;2022-08-05T10:50:59;2.05;;;1.85;;
12433;SDS011;6281;49.038;8.372;2022-08-05T10:53:31;2.83;;;2.40;;
12433;SDS011;6281;49.038;8.372;2022-08-05T10:56:01;2.75;;;2.15;;
12433;SDS011;6281;49.038;8.372;2022-08-05T10:58:30;2.67;;;1.92;;
12433;SDS011;6281;49.038;8.372;2022-08-05T11:00:57;2.42;;;1.92;;
12433;SDS011;6281;49.038;8.372;2022-08-05T11:03:23;2.65;;;2.10;;
12433;SDS011;6281;49.038;8.372;2022-08-05T11:06:04;3.85;;;2.25;;
12433;SDS011;6281;49.038;8.372;2022-08-05T11:08:33;2.10;;;1.90;;
12433;SDS011;6281;49.038;8.372;2022-08-05T11:14:00;2.25;;;2.00;;
12433;SDS011;6281;49.038;8.372;2022-08-05T11:16:28;2.00;;;1.88;;
12433;SDS011;6281;49.038;8.372;2022-08-05T11:21:54;3.17;;;1.98;;
12433;SDS011;6281;49.038;8.372;2022-08-05T11:24:21;2.25;;;2.05;;
12433;SDS011;6281;49.038;8.372;2022-08-05T11:26:49;2.13;;;1.80;;
12433;SDS011;6281;49.038;8.372;2022-08-05T11:29:44;3.75;;;2.20;;
12433;SDS011;6281;49.038;8.372;2022-08-05T11:32:25;3.75;;;2.10;;
12433;SDS011;6281;49.038;8.372;2022-08-05T11:34:53;1.70;;;1.60;;
12433;SDS011;6281;49.038;8.372;2022-08-05T11:40:27;4.32;;;1.80;;
12433;SDS011;6281;49.038;8.372;2022-08-05T11:43:24;2.08;;;1.88;;
12433;SDS011;6281;49.038;8.372;2022-08-05T11:45:52;2.97;;;1.92;;
12433;SDS011;6281;49.038;8.372;2022-08-05T11:48:19;1.70;;;1.60;;
12433;SDS011;6281;49.038;8.372;2022-08-05T11:50:47;2.70;;;2.05;;
12433;SDS011;6281;49.038;8.372;2022-08-05T11:53:14;2.63;;;1.73;;
12433;SDS011;6281;49.038;8.372;2022-08-05T11:55:51;3.42;;;2.50;;
12433;SDS011;6281;49.038;8.372;2022-08-05T11:58:27;3.25;;;2.00;;
12433;SDS011;6281;49.038;8.372;2022-08-05T12:01:02;2.30;;;2.10;;
12433;SDS011;6281;49.038;8.372;2022-08-05T12:03:39;2.40;;;2.08;;
12433;SDS011;6281;49.038;8.372;2022-08-05T12:06:07;2.53;;;2.33;;
12433;SDS011;6281;49.038;8.372;2022-08-05T12:08:38;3.70;;;2.10;;
12433;SDS011;6281;49.038;8.372;2022-08-05T12:11:07;2.17;;;1.98;;
12433;SDS011;6281;49.038;8.372;2022-08-05T12:13:35;2.40;;;2.20;;
12433;SDS011;6281;49.038;8.372;2022-08-05T12:16:04;3.30;;;2.30;;
12433;SDS011;6281;49.038;8.372;2022-08-05T12:18:33;2.40;;;2.20;;
12433;SDS011;6281;49.038;8.372;2022-08-05T12:21:10;2.20;;;2.00;;
12433;SDS011;6281;49.038;8.372;2022-08-05T12:23:38;3.53;;;2.20;;
12433;SDS011;6281;49.038;8.372;2022-08-05T12:26:05;2.40;;;2.20;;
12433;SDS011;6281;49.038;8.372;2022-08-05T12:28:32;2.78;;;2.28;;
12433;SDS011;6281;49.038;8.372;2022-08-05T12:31:00;4.22;;;2.35;;
12433;SDS011;6281;49.038;8.372;2022-08-05T12:33:29;2.65;;;2.00;;
12433;SDS011;6281;49.038;8.372;2022-08-05T12:35:56;2.28;;;2.03;;
12433;SDS011;6281;49.038;8.372;2022-08-05T12:38:24;3.38;;;2.30;;
12433;SDS011;6281;49.038;8.372;2022-08-05T12:40:51;2.38;;;2.17;;
12433;SDS011;6281;49.038;8.372;2022-08-05T12:43:21;3.30;;;2.30;;
12433;SDS011;6281;49.038;8.372;2022-08-05T12:45:51;2.95;;;2.42;;
12433;SDS011;6281;49.038;8.372;2022-08-05T12:48:18;2.35;;;2.15;;
12433;SDS011;6281;49.038;8.372;2022-08-05T12:53:39;2.45;;;2.25;;
12433;SDS011;6281;49.038;8.372;2022-08-05T12:56:16;2.92;;;2.15;;
12433;SDS011;6281;49.038;8.372;2022-08-05T13:01:40;3.78;;;2.22;;
12433;SDS011;6281;49.038;8.372;2022-08-05T13:04:08;3.63;;;2.42;;
12433;SDS011;6281;49.038;8.372;2022-08-05T13:06:38;2.45;;;2.20;;
12433;SDS011;6281;49.038;8.372;2022-08-05T13:09:07;3.03;;;2.30;;
12433;SDS011;6281;49.038;8.372;2022-08-05T13:11:41;3.60;;;2.50;;
12433;SDS011;6281;49.038;8.372;2022-08-05T13:14:15;2.70;;;2.40;;
12433;SDS011;6281;49.038;8.372;2022-08-05T13:16:50;3.28;;;2.50;;
12433;SDS011;6281;49.038;8.372;2022-08-05T13:19:22;2.35;;;2.10;;
12433;SDS011;6281;49.038;8.372;2022-08-05T13:21:52;3.08;;;2.80;;
12433;SDS011;6281;49.038;8.372;2022-08-05T13:24:20;3.05;;;2.75;;
12433;SDS011;6281;49.038;8.372;2022-08-05T13:26:47;4.32;;;2.58;;
12433;SDS011;6281;49.038;8.372;2022-08-05T13:29:16;4.68;;;2.92;;
12433;SDS011;6281;49.038;8.372;2022-08-05T13:31:45;3.92;;;3.00;;
12433;SDS011;6281;49.038;8.372;2022-08-05T13:34:12;2.97;;;2.72;;
12433;SDS011;6281;49.038;8.372;2022-08-05T13:36:39;3.25;;;2.97;;
12433;SDS011;6281;49.038;8.372;2022-08-05T13:39:08;3.22;;;2.92;;
12433;SDS011;6281;49.038;8.372;2022-08-05T13:41:37;3.95;;;2.65;;
12433;SDS011;6281;49.038;8.372;2022-08-05T13:44:04;3.08;;;2.55;;
12433;SDS011;6281;49.038;8.372;2022-08-05T13:46:31;4.03;;;2.88;;
12433;SDS011;6281;49.038;8.372;2022-08-05T13:48:58;3.28;;;2.97;;
12433;SDS011;6281;49.038;8.372;2022-08-05T13:51:29;3.17;;;2.88;;
12433;SDS011;6281;49.038;8.372;2022-08-05T13:53:57;2.92;;;2.63;;
12433;SDS011;6281;49.038;8.372;2022-08-05T13:56:25;2.67;;;2.47;;
12433;SDS011;6281;49.038;8.372;2022-08-05T13:58:52;5.25;;;3.22;;
12433;SDS011;6281;49.038;8.372;2022-08-05T14:01:19;5.72;;;2.88;;
12433;SDS011;6281;49.038;8.372;2022-08-05T14:03:47;3.20;;;2.90;;
12433;SDS011;6281;49.038;8.372;2022-08-05T14:06:28;3.03;;;2.60;;
12433;SDS011;6281;49.038;8.372;2022-08-05T14:08:54;2.90;;;2.70;;
12433;SDS011;6281;49.038;8.372;2022-08-05T14:11:21;4.50;;;2.83;;
12433;SDS011;6281;49.038;8.372;2022-08-05T14:13:49;3.53;;;3.13;;
12433;SDS011;6281;49.038;8.372;2022-08-05T14:16:16;4.38;;;2.90;;
12433;SDS011;6281;49.038;8.372;2022-08-05T14:18:43;4.57;;;3.00;;
12433;SDS011;6281;49.038;8.372;2022-08-05T14:21:10;3.50;;;3.15;;
12433;SDS011;6281;49.038;8.372;2022-08-05T14:23:37;3.55;;;3.00;;
12433;SDS011;6281;49.038;8.372;2022-08-05T14:26:04;4.97;;;3.30;;
12433;SDS011;6281;49.038;8.372;2022-08-05T14:28:31;3.33;;;3.03;;
12433;SDS011;6281;49.038;8.372;2022-08-05T14:30:59;5.63;;;3.03;;
12433;SDS011;6281;49.038;8.372;2022-08-05T14:33:26;5.75;;;3.13;;
12433;SDS011;6281;49.038;8.372;2022-08-05T14:35:54;3.72;;;3.22;;
12433;SDS011;6281;49.038;8.372;2022-08-05T14:38:21;4.30;;;3.10;;
12433;SDS011;6281;49.038;8.372;2022-08-05T14:40:48;3.80;;;3.50;;
12433;SDS011;6281;49.038;8.372;2022-08-05T14:43:15;4.07;;;3.08;;
12433;SDS011;6281;49.038;8.372;2022-08-05T14:45:42;4.53;;;3.50;;
12433;SDS011;6281;49.038;8.372;2022-08-05T14:48:10;4.38;;;3.28;;
12433;SDS011;6281;49.038;8.372;2022-08-05T14:50:37;4.47;;;3.60;;
12433;SDS011;6281;49.038;8.372;2022-08-05T14:53:04;4.22;;;3.50;;
12433;SDS011;6281;49.038;8.372;2022-08-05T14:55:31;3.95;;;3.65;;
12433;SDS011;6281;49.038;8.372;2022-08-05T14:57:58;3.75;;;3.45;;
12433;SDS011;6281;49.038;8.372;2022-08-05T15:00:24;4.00;;;3.70;;
12433;SDS011;6281;49.038;8.372;2022-08-05T15:02:51;3.90;;;3.60;;
12433;SDS011;6281;49.038;8.372;2022-08-05T15:05:20;3.78;;;3.38;;
12433;SDS011;6281;49.038;8.372;2022-08-05T15:07:47;3.63;;;3.33;;
12433;SDS011;6281;49.038;8.372;2022-08-05T15:10:14;3.40;;;3.10;;
12433;SDS011;6281;49.038;8.372;2022-08-05T15:12:41;4.95;;;3.42;;
12433;SDS011;6281;49.038;8.372;2022-08-05T15:15:08;3.97;;;3.40;;
12433;SDS011;6281;49.038;8.372;2022-08-05T15:17:36;3.33;;;2.92;;
12433;SDS011;6281;49.038;8.372;2022-08-05T15:20:03;3.30;;;2.90;;
12433;SDS011;6281;49.038;8.372;2022-08-05T15:22:32;3.85;;;3.10;;
12433;SDS011;6281;49.038;8.372;2022-08-05T15:25:00;3.25;;;2.90;;
12433;SDS011;6281;49.038;8.372;2022-08-05T15:27:27;3.60;;;2.90;;
12433;SDS011;6281;49.038;8.372;2022-08-05T15:29:54;3.25;;;2.95;;
12433;SDS011;6281;49.038;8.372;2022-08-05T15:32:21;4.32;;;3.22;;